createdAt,value
2023-05-12T00:01:17.147Z,12.52
2023-05-12T00:03:44.001Z,12.02
2023-05-12T00:06:11.298Z,10.15
2023-05-12T00:08:37.932Z,10.68
2023-05-12T00:11:04.432Z,10.30
2023-05-12T00:13:30.947Z,9.98
2023-05-12T00:15:58.936Z,11.48
2023-05-12T00:18:26.278Z,14.43
2023-05-12T00:20:54.431Z,8.07
2023-05-12T00:23:22.160Z,10.75
2023-05-12T00:25:48.987Z,9.45
2023-05-12T00:28:15.611Z,9.57
2023-05-12T00:30:42.017Z,9.77
2023-05-12T00:33:08.378Z,11.68
2023-05-12T00:35:34.970Z,10.55
2023-05-12T00:38:01.452Z,11.02
2023-05-12T00:40:27.939Z,8.98
2023-05-12T00:42:57.352Z,9.65
2023-05-12T00:45:23.863Z,10.85
2023-05-12T00:47:51.866Z,10.23
2023-05-12T00:50:19.002Z,9.57
2023-05-12T00:52:46.906Z,10.75
2023-05-12T00:55:13.503Z,10.00
2023-05-12T00:57:41.142Z,9.63
2023-05-12T01:00:08.831Z,10.85
2023-05-12T01:02:36.474Z,10.30
2023-05-12T01:05:04.217Z,9.88
2023-05-12T01:07:33.242Z,9.57
2023-05-12T01:10:00.044Z,10.73
2023-05-12T01:12:27.399Z,9.77
2023-05-12T01:14:56.060Z,10.05
2023-05-12T01:17:35.029Z,11.23
2023-05-12T01:20:04.501Z,10.52
2023-05-12T01:22:33.576Z,9.20
2023-05-12T01:25:03.565Z,7.47
2023-05-12T01:27:31.492Z,9.52
2023-05-12T01:30:00.335Z,8.65
2023-05-12T01:32:26.883Z,11.00
2023-05-12T01:34:53.459Z,8.73
2023-05-12T01:37:19.974Z,11.55
2023-05-12T01:39:46.448Z,10.27
2023-05-12T01:42:12.958Z,9.95
2023-05-12T01:44:39.348Z,11.95
2023-05-12T01:47:09.792Z,9.57
2023-05-12T01:49:36.394Z,9.85
2023-05-12T01:52:02.969Z,10.18
2023-05-12T01:54:29.650Z,10.50
2023-05-12T01:56:56.267Z,9.10
2023-05-12T01:59:22.748Z,8.68
2023-05-12T02:01:49.291Z,10.38
2023-05-12T02:04:15.929Z,8.68
2023-05-12T02:06:42.553Z,9.88
2023-05-12T02:09:09.111Z,8.63
2023-05-12T02:11:35.590Z,9.05
2023-05-12T02:14:02.058Z,7.72
2023-05-12T02:16:28.547Z,7.60
2023-05-12T02:18:55.030Z,8.23
2023-05-12T02:21:21.505Z,7.38
2023-05-12T02:23:47.937Z,8.95
2023-05-12T02:26:14.443Z,8.60
2023-05-12T02:28:40.993Z,11.48
2023-05-12T02:31:07.484Z,10.00
2023-05-12T02:33:33.913Z,8.95
2023-05-12T02:36:00.419Z,7.63
2023-05-12T02:38:27.502Z,8.50
2023-05-12T02:40:53.899Z,7.45
2023-05-12T02:43:20.329Z,10.68
2023-05-12T02:45:47.265Z,10.18
2023-05-12T02:48:13.688Z,9.48
2023-05-12T02:50:40.190Z,12.48
2023-05-12T02:53:06.760Z,11.13
2023-05-12T02:55:34.009Z,11.57
2023-05-12T02:58:00.530Z,9.98
2023-05-12T03:00:26.895Z,10.15
2023-05-12T03:02:53.370Z,11.10
2023-05-12T03:05:20.002Z,10.55
2023-05-12T03:07:48.593Z,10.18
2023-05-12T03:10:15.695Z,11.77
2023-05-12T03:12:42.094Z,12.70
2023-05-12T03:15:09.101Z,11.60
2023-05-12T03:17:36.518Z,13.20
2023-05-12T03:20:03.843Z,11.02
2023-05-12T03:22:30.354Z,12.80
2023-05-12T03:24:56.777Z,14.45
2023-05-12T03:27:23.288Z,13.27
2023-05-12T03:29:49.786Z,12.40
2023-05-12T03:32:16.709Z,15.55
2023-05-12T03:34:43.095Z,17.75
2023-05-12T03:37:09.616Z,14.30
2023-05-12T03:39:35.960Z,19.42
2023-05-12T03:42:02.873Z,17.02
2023-05-12T03:44:29.270Z,18.35
2023-05-12T03:46:55.776Z,18.98
2023-05-12T03:49:22.256Z,16.70
2023-05-12T03:51:48.652Z,17.77
2023-05-12T03:54:15.108Z,20.13
2023-05-12T03:56:41.751Z,21.00
2023-05-12T03:59:08.180Z,25.15
2023-05-12T04:01:35.638Z,21.67
2023-05-12T04:04:02.073Z,23.45
2023-05-12T04:06:28.687Z,21.30
2023-05-12T04:08:55.141Z,26.55
2023-05-12T04:11:21.492Z,24.80
2023-05-12T04:13:47.837Z,25.38
2023-05-12T04:16:14.577Z,24.85
2023-05-12T04:18:41.076Z,24.73
2023-05-12T04:21:07.510Z,23.75
2023-05-12T04:23:34.016Z,30.35
2023-05-12T04:26:03.928Z,26.40
2023-05-12T04:28:30.331Z,29.45
2023-05-12T04:30:56.712Z,29.85
2023-05-12T04:33:23.106Z,26.65
2023-05-12T04:35:49.590Z,24.23
2023-05-12T04:38:15.987Z,29.25
2023-05-12T04:40:42.471Z,26.73
2023-05-12T04:43:08.894Z,30.90
2023-05-12T04:45:35.487Z,28.35
2023-05-12T04:48:02.013Z,31.88
2023-05-12T04:50:28.502Z,33.00
2023-05-12T04:52:54.918Z,31.08
2023-05-12T04:55:21.805Z,34.67
2023-05-12T04:57:48.426Z,31.30
2023-05-12T05:00:15.471Z,29.27
2023-05-12T05:02:42.145Z,29.77
2023-05-12T05:05:09.246Z,51.03
2023-05-12T05:07:35.669Z,42.10
2023-05-12T05:10:02.129Z,41.60
2023-05-12T05:12:28.598Z,38.92
2023-05-12T05:14:54.987Z,30.80
2023-05-12T05:17:21.392Z,31.33
2023-05-12T05:19:57.260Z,33.72
2023-05-12T05:22:25.129Z,33.25
2023-05-12T05:24:52.046Z,31.23
2023-05-12T05:27:19.017Z,28.45
2023-05-12T05:29:45.709Z,34.58
2023-05-12T05:32:12.253Z,33.55
2023-05-12T05:34:38.757Z,35.25
2023-05-12T05:37:05.656Z,36.53
2023-05-12T05:39:32.223Z,45.20
2023-05-12T05:41:58.699Z,38.53
2023-05-12T05:44:25.501Z,40.75
2023-05-12T05:46:52.221Z,36.90
2023-05-12T05:49:19.017Z,31.60
2023-05-12T05:51:45.372Z,30.98
2023-05-12T05:54:12.201Z,36.35
2023-05-12T05:56:38.939Z,34.45
2023-05-12T05:59:05.728Z,33.60
2023-05-12T06:01:32.769Z,34.72
2023-05-12T06:03:59.567Z,36.33
2023-05-12T06:06:26.392Z,32.10
2023-05-12T06:08:55.871Z,34.03
2023-05-12T06:11:22.285Z,35.40
2023-05-12T06:13:48.744Z,31.95
2023-05-12T06:16:15.344Z,34.42
2023-05-12T06:18:41.822Z,36.05
2023-05-12T06:21:08.384Z,37.10
2023-05-12T06:23:34.952Z,39.42
2023-05-12T06:26:01.366Z,35.28
2023-05-12T06:28:27.751Z,31.40
2023-05-12T06:30:54.112Z,31.67
2023-05-12T06:33:20.782Z,32.67
2023-05-12T06:35:47.379Z,32.15
2023-05-12T06:38:13.718Z,29.30
2023-05-12T06:40:40.263Z,33.65
2023-05-12T06:43:07.246Z,31.95
2023-05-12T06:45:33.704Z,34.83
2023-05-12T06:48:01.579Z,32.22
2023-05-12T06:50:28.099Z,33.05
2023-05-12T06:52:54.532Z,30.92
2023-05-12T06:55:24.108Z,32.60
2023-05-12T06:57:55.502Z,31.38
2023-05-12T07:00:26.192Z,32.70
2023-05-12T07:02:53.114Z,30.92
2023-05-12T07:05:20.173Z,31.33
2023-05-12T07:07:46.861Z,31.70
2023-05-12T07:10:13.445Z,36.05
2023-05-12T07:12:40.061Z,27.67
2023-05-12T07:15:07.210Z,31.75
2023-05-12T07:17:33.662Z,31.30
2023-05-12T07:20:00.202Z,28.73
2023-05-12T07:22:27.051Z,29.80
2023-05-12T07:24:54.024Z,34.45
2023-05-12T07:27:20.510Z,29.52
2023-05-12T07:29:46.902Z,31.95
2023-05-12T07:32:13.417Z,29.15
2023-05-12T07:34:39.933Z,27.75
2023-05-12T07:37:06.533Z,28.30
2023-05-12T07:39:33.220Z,27.95
2023-05-12T07:41:59.698Z,30.10
2023-05-12T07:44:26.609Z,25.85
2023-05-12T07:46:53.237Z,27.92
2023-05-12T07:49:19.877Z,25.42
2023-05-12T07:51:46.346Z,24.48
2023-05-12T07:54:13.487Z,25.95
2023-05-12T07:56:40.084Z,23.33
2023-05-12T07:59:06.534Z,22.95
2023-05-12T08:01:33.036Z,21.98
2023-05-12T08:03:59.603Z,26.23
2023-05-12T08:06:26.062Z,22.75
2023-05-12T08:08:52.426Z,21.33
2023-05-12T08:11:18.776Z,23.15
2023-05-12T08:13:45.200Z,22.60
2023-05-12T08:16:11.685Z,21.23
2023-05-12T08:18:38.796Z,20.23
2023-05-12T08:21:05.887Z,21.45
2023-05-12T08:23:32.301Z,21.25
2023-05-12T08:25:58.748Z,19.92
2023-05-12T08:28:25.144Z,21.15
2023-05-12T08:30:51.635Z,18.23
2023-05-12T08:33:18.065Z,20.45
2023-05-12T08:35:44.752Z,18.30
2023-05-12T08:38:11.100Z,18.55
2023-05-12T08:41:14.265Z,20.00
2023-05-12T08:43:46.341Z,21.92
2023-05-12T08:46:13.351Z,20.40
2023-05-12T08:48:40.712Z,18.30
2023-05-12T08:51:10.249Z,18.65
2023-05-12T08:53:37.663Z,17.98
2023-05-12T08:58:41.752Z,16.63
2023-05-12T09:01:11.696Z,18.00
2023-05-12T09:03:38.923Z,15.30
2023-05-12T09:06:06.633Z,16.13
2023-05-12T09:08:34.819Z,16.38
2023-05-12T09:11:02.484Z,17.08
2023-05-12T09:14:02.876Z,15.82
2023-05-12T09:16:33.308Z,15.25
2023-05-12T09:21:28.244Z,13.68
2023-05-12T09:24:07.618Z,14.45
2023-05-12T09:26:51.506Z,14.77
2023-05-12T09:29:30.728Z,12.77
2023-05-12T09:32:00.391Z,13.13
2023-05-12T09:34:32.620Z,11.82
2023-05-12T09:37:01.213Z,9.88
2023-05-12T09:39:28.969Z,10.38
2023-05-12T09:41:55.970Z,10.88
2023-05-12T09:44:23.770Z,10.38
2023-05-12T09:46:51.305Z,10.20
2023-05-12T09:49:22.337Z,10.98
2023-05-12T09:51:53.634Z,11.00
2023-05-12T09:54:27.472Z,10.90
2023-05-12T09:56:58.331Z,9.55
2023-05-12T09:59:28.235Z,11.60
2023-05-12T10:01:59.289Z,11.60
2023-05-12T10:04:26.520Z,11.45
2023-05-12T10:06:54.566Z,9.95
2023-05-12T10:09:31.467Z,8.80
2023-05-12T10:11:58.136Z,9.75
2023-05-12T10:14:24.926Z,9.43
2023-05-12T10:16:52.727Z,9.02
2023-05-12T10:19:20.381Z,8.95
2023-05-12T10:21:47.317Z,9.07
2023-05-12T10:24:17.303Z,8.98
2023-05-12T10:26:44.676Z,9.15
2023-05-12T10:29:12.427Z,9.75
2023-05-12T10:31:39.104Z,9.45
2023-05-12T10:34:06.743Z,8.60
2023-05-12T10:36:45.781Z,8.95
2023-05-12T10:39:15.500Z,8.38
2023-05-12T10:41:42.720Z,7.68
2023-05-12T10:44:10.978Z,9.73
2023-05-12T10:46:37.921Z,7.78
2023-05-12T10:49:10.416Z,8.00
2023-05-12T10:51:43.019Z,7.78
2023-05-12T10:54:11.846Z,6.38
2023-05-12T10:56:38.637Z,9.63
2023-05-12T10:59:20.519Z,9.55
2023-05-12T11:02:00.006Z,7.15
2023-05-12T11:04:48.683Z,8.32
2023-05-12T11:07:17.011Z,6.32
2023-05-12T11:09:56.096Z,7.90
2023-05-12T11:12:27.249Z,7.68
2023-05-12T11:14:54.247Z,5.43
2023-05-12T11:17:22.797Z,8.45
2023-05-12T11:19:50.559Z,7.30
2023-05-12T11:22:20.033Z,6.65
2023-05-12T11:24:47.869Z,5.68
2023-05-12T11:27:17.125Z,5.53
2023-05-12T11:29:45.043Z,6.90
2023-05-12T11:32:12.468Z,5.22
2023-05-12T11:34:39.104Z,5.82
2023-05-12T11:37:08.522Z,5.15
2023-05-12T11:39:36.427Z,5.07
2023-05-12T11:42:12.131Z,5.25
2023-05-12T11:44:48.760Z,5.28
2023-05-12T11:47:16.250Z,6.32
2023-05-12T11:49:51.133Z,4.97
2023-05-12T11:52:19.682Z,5.22
2023-05-12T11:54:51.973Z,6.35
2023-05-12T11:57:28.628Z,5.45
2023-05-12T12:02:26.055Z,7.28
2023-05-12T12:04:53.413Z,6.75
2023-05-12T12:07:34.288Z,7.32
2023-05-12T12:10:17.784Z,7.78
2023-05-12T12:12:45.344Z,6.35
2023-05-12T12:15:13.992Z,5.85
2023-05-12T12:17:40.722Z,6.43
2023-05-12T12:20:08.954Z,4.97
2023-05-12T12:22:35.654Z,6.30
2023-05-12T12:25:02.948Z,7.93
2023-05-12T12:27:29.716Z,5.85
2023-05-12T12:29:56.274Z,6.60
2023-05-12T12:32:22.712Z,6.65
2023-05-12T12:34:49.481Z,6.30
2023-05-12T12:37:16.276Z,5.82
2023-05-12T12:39:42.800Z,6.03
2023-05-12T12:42:09.423Z,6.15
2023-05-12T12:44:36.115Z,5.68
2023-05-12T12:47:02.604Z,5.63
2023-05-12T12:49:29.117Z,6.25
2023-05-12T12:51:55.981Z,6.68
2023-05-12T12:54:22.721Z,6.10
2023-05-12T12:56:49.162Z,6.15
2023-05-12T12:59:15.685Z,8.00
2023-05-12T13:01:42.920Z,6.97
2023-05-12T13:04:09.475Z,5.75
2023-05-12T13:06:36.084Z,6.70
2023-05-12T13:09:04.034Z,5.80
2023-05-12T13:11:30.618Z,6.93
2023-05-12T13:13:57.094Z,6.43
2023-05-12T13:16:24.707Z,5.13
2023-05-12T13:18:51.144Z,6.80
2023-05-12T13:21:18.764Z,6.55
2023-05-12T13:23:45.394Z,6.45
2023-05-12T13:26:11.824Z,6.50
2023-05-12T13:28:38.273Z,6.88
2023-05-12T13:31:06.084Z,8.40
2023-05-12T13:33:32.863Z,7.60
2023-05-12T13:35:59.447Z,7.55
2023-05-12T13:38:26.364Z,7.10
2023-05-12T13:40:52.970Z,7.30
2023-05-12T13:43:19.475Z,7.38
2023-05-12T13:45:45.898Z,6.55
2023-05-12T13:48:12.359Z,7.82
2023-05-12T13:50:38.815Z,7.82
2023-05-12T13:53:05.296Z,8.25
2023-05-12T13:55:33.848Z,7.20
2023-05-12T13:58:00.385Z,5.70
2023-05-12T14:00:29.715Z,7.40
2023-05-12T14:02:57.724Z,8.48
2023-05-12T14:05:24.559Z,6.28
2023-05-12T14:07:51.245Z,6.70
2023-05-12T14:10:18.586Z,6.40
2023-05-12T14:12:45.158Z,5.78
2023-05-12T14:17:46.341Z,5.95
2023-05-12T14:20:12.906Z,5.57
2023-05-12T14:22:39.440Z,6.55
2023-05-12T14:25:07.531Z,6.53
2023-05-12T14:27:33.940Z,7.40
2023-05-12T14:30:00.499Z,6.05
2023-05-12T14:32:27.162Z,7.30
2023-05-12T14:34:53.539Z,6.53
2023-05-12T14:37:20.016Z,5.22
2023-05-12T14:39:46.707Z,6.10
2023-05-12T14:42:13.210Z,6.75
2023-05-12T14:44:39.589Z,6.18
2023-05-12T14:47:09.081Z,6.00
2023-05-12T14:49:35.834Z,5.75
2023-05-12T14:52:02.807Z,6.47
2023-05-12T14:54:29.337Z,7.38
2023-05-12T14:56:56.487Z,7.45
2023-05-12T14:59:23.202Z,9.73
2023-05-12T15:01:49.818Z,6.38
2023-05-12T15:04:16.421Z,5.88
2023-05-12T15:06:43.028Z,6.65
2023-05-12T15:09:09.625Z,5.38
2023-05-12T15:11:36.961Z,5.55
2023-05-12T15:14:04.804Z,5.93
2023-05-12T15:16:32.871Z,6.47
2023-05-12T15:18:59.363Z,5.47
2023-05-12T15:21:26.091Z,5.60
2023-05-12T15:23:52.487Z,6.78
2023-05-12T15:26:32.100Z,7.20
2023-05-12T15:29:00.530Z,7.72
2023-05-12T15:31:29.125Z,7.38
2023-05-12T15:33:56.871Z,6.45
2023-05-12T15:36:23.602Z,7.07
2023-05-12T15:38:50.147Z,6.57
2023-05-12T15:41:16.578Z,6.10
2023-05-12T15:43:43.038Z,6.47
2023-05-12T15:46:10.900Z,7.32
2023-05-12T15:48:37.800Z,8.32
2023-05-12T15:51:04.474Z,8.55
2023-05-12T15:53:31.664Z,7.35
2023-05-12T15:56:02.365Z,7.40
2023-05-12T15:58:29.038Z,9.32
2023-05-12T16:00:55.962Z,11.88
2023-05-12T16:03:23.555Z,7.88
2023-05-12T16:05:50.730Z,8.90
2023-05-12T16:08:17.387Z,8.48
2023-05-12T16:10:43.969Z,9.40
2023-05-12T16:13:10.357Z,11.18
2023-05-12T16:15:36.912Z,8.13
2023-05-12T16:18:03.614Z,10.32
2023-05-12T16:20:30.238Z,10.00
2023-05-12T16:22:56.880Z,9.32
2023-05-12T16:25:23.884Z,7.90
2023-05-12T16:27:50.367Z,8.70
2023-05-12T16:30:19.423Z,7.50
2023-05-12T16:32:47.264Z,7.60
2023-05-12T16:35:14.198Z,11.30
2023-05-12T16:37:41.134Z,9.30
2023-05-12T16:40:08.193Z,9.15
2023-05-12T16:42:34.672Z,8.13
2023-05-12T16:45:01.055Z,7.93
2023-05-12T16:47:27.497Z,8.00
2023-05-12T16:49:53.925Z,8.30
2023-05-12T16:52:20.588Z,7.47
2023-05-12T16:54:47.471Z,9.77
2023-05-12T16:57:14.005Z,9.50
2023-05-12T16:59:40.459Z,9.68
2023-05-12T17:02:08.440Z,9.68
2023-05-12T17:04:35.055Z,8.25
2023-05-12T17:07:01.518Z,9.35
2023-05-12T17:09:27.936Z,10.63
2023-05-12T17:11:54.470Z,9.95
2023-05-12T17:14:21.094Z,9.23
2023-05-12T17:16:47.626Z,9.27
2023-05-12T17:19:14.799Z,9.90
2023-05-12T17:21:42.203Z,10.85
2023-05-12T17:24:08.802Z,8.48
2023-05-12T17:26:35.754Z,10.00
2023-05-12T17:29:02.579Z,10.77
2023-05-12T17:31:29.144Z,10.55
2023-05-12T17:33:55.785Z,10.85
2023-05-12T17:36:22.480Z,12.82
2023-05-12T17:38:50.486Z,9.50
2023-05-12T17:41:17.140Z,9.68
2023-05-12T17:43:43.650Z,9.65
2023-05-12T17:46:10.171Z,8.57
2023-05-12T17:48:38.373Z,8.30
2023-05-12T17:51:05.175Z,11.02
2023-05-12T17:53:32.438Z,9.88
2023-05-12T17:55:59.910Z,8.18
2023-05-12T17:58:26.646Z,8.73
2023-05-12T18:00:53.601Z,10.30
2023-05-12T18:03:23.714Z,9.20
2023-05-12T18:05:51.752Z,8.93
2023-05-12T18:08:18.521Z,9.00
2023-05-12T18:10:45.612Z,9.70
2023-05-12T18:13:12.105Z,16.70
2023-05-12T18:15:38.703Z,12.02
2023-05-12T18:18:05.491Z,8.80
2023-05-12T18:20:31.941Z,8.32
2023-05-12T18:22:58.363Z,7.97
2023-05-12T18:25:24.781Z,8.40
2023-05-12T18:27:52.087Z,7.47
2023-05-12T18:30:18.877Z,7.60
2023-05-12T18:32:45.421Z,6.70
2023-05-12T18:35:12.279Z,6.35
2023-05-12T18:37:38.729Z,7.30
2023-05-12T18:40:06.851Z,6.32
2023-05-12T18:42:34.238Z,6.55
2023-05-12T18:45:00.724Z,7.22
2023-05-12T18:47:27.262Z,6.57
2023-05-12T18:49:53.684Z,7.50
2023-05-12T18:52:21.223Z,7.22
2023-05-12T18:54:49.708Z,8.77
2023-05-12T18:57:17.519Z,10.40
2023-05-12T18:59:43.951Z,9.20
2023-05-12T19:02:10.770Z,12.68
2023-05-12T19:04:37.569Z,10.68
2023-05-12T19:07:06.489Z,11.25
2023-05-12T19:09:32.923Z,9.73
2023-05-12T19:11:59.665Z,9.23
2023-05-12T19:14:26.112Z,10.50
2023-05-12T19:16:53.299Z,9.50
2023-05-12T19:19:19.947Z,10.27
2023-05-12T19:21:46.542Z,10.50
2023-05-12T19:24:12.922Z,9.82
2023-05-12T19:26:39.339Z,10.48
2023-05-12T19:29:05.912Z,9.80
2023-05-12T19:31:34.156Z,12.13
2023-05-12T19:34:00.784Z,10.23
2023-05-12T19:36:29.029Z,11.88
2023-05-12T19:38:59.475Z,9.90
2023-05-12T19:41:29.839Z,10.48
2023-05-12T19:43:56.374Z,9.65
2023-05-12T19:46:23.128Z,11.57
2023-05-12T19:48:51.063Z,9.43
2023-05-12T19:51:17.660Z,9.68
2023-05-12T19:53:44.290Z,8.60
2023-05-12T19:56:11.100Z,11.63
2023-05-12T19:58:37.476Z,10.25
2023-05-12T20:01:03.884Z,8.90
2023-05-12T20:03:30.344Z,8.75
2023-05-12T20:05:58.484Z,9.77
2023-05-12T20:08:24.879Z,9.93
2023-05-12T20:10:51.246Z,11.02
2023-05-12T20:13:17.643Z,10.55
2023-05-12T20:15:44.282Z,8.52
2023-05-12T20:18:12.605Z,11.70
2023-05-12T20:20:39.064Z,9.77
2023-05-12T20:23:05.431Z,10.73
2023-05-12T20:25:33.093Z,9.98
2023-05-12T20:27:59.589Z,10.27
2023-05-12T20:30:25.961Z,10.18
2023-05-12T20:32:52.391Z,11.32
2023-05-12T20:35:19.178Z,9.70
2023-05-12T20:37:45.831Z,11.02
2023-05-12T20:40:12.471Z,10.75
2023-05-12T20:42:38.945Z,11.85
2023-05-12T20:45:06.668Z,10.20
2023-05-12T20:47:37.195Z,12.18
2023-05-12T20:50:05.610Z,11.40
2023-05-12T20:52:41.864Z,11.10
2023-05-12T20:55:09.624Z,9.70
2023-05-12T20:57:36.178Z,11.73
2023-05-12T21:00:02.737Z,13.30
2023-05-12T21:02:29.571Z,11.57
2023-05-12T21:04:56.202Z,12.18
2023-05-12T21:07:22.753Z,11.82
2023-05-12T21:09:49.479Z,11.48
2023-05-12T21:12:16.066Z,11.30
2023-05-12T21:14:43.623Z,14.32
2023-05-12T21:17:10.920Z,11.20
2023-05-12T21:19:38.828Z,13.13
2023-05-12T21:22:06.770Z,12.48
2023-05-12T21:24:33.596Z,13.98
2023-05-12T21:27:04.624Z,13.82
2023-05-12T21:29:32.329Z,14.02
2023-05-12T21:31:59.051Z,11.10
2023-05-12T21:34:26.189Z,14.35
2023-05-12T21:36:53.142Z,11.93
2023-05-12T21:39:19.534Z,12.07
2023-05-12T21:41:45.940Z,11.85
2023-05-12T21:44:12.763Z,14.07
2023-05-12T21:46:39.208Z,12.52
2023-05-12T21:49:05.605Z,11.68
2023-05-12T21:51:33.106Z,11.85
2023-05-12T21:54:00.595Z,12.70
2023-05-12T21:56:27.166Z,11.20
2023-05-12T21:58:53.643Z,13.00
2023-05-12T22:01:20.271Z,13.27
2023-05-12T22:03:46.881Z,11.85
2023-05-12T22:06:13.410Z,12.25
2023-05-12T22:08:39.880Z,12.75
2023-05-12T22:11:06.354Z,12.85
2023-05-12T22:13:32.763Z,13.68
2023-05-12T22:15:59.985Z,11.63
2023-05-12T22:18:26.476Z,12.13
2023-05-12T22:20:52.982Z,12.18
2023-05-12T22:23:19.343Z,13.32
2023-05-12T22:25:45.932Z,11.75
2023-05-12T22:28:12.341Z,13.35
2023-05-12T22:30:38.746Z,12.10
2023-05-12T22:33:05.097Z,12.65
2023-05-12T22:35:31.691Z,10.55
2023-05-12T22:37:58.234Z,11.60
2023-05-12T22:40:26.936Z,10.60
2023-05-12T22:42:53.341Z,9.95
2023-05-12T22:45:19.853Z,11.30
2023-05-12T22:47:46.370Z,9.95
2023-05-12T22:50:12.822Z,12.93
2023-05-12T22:52:39.285Z,13.02
2023-05-12T22:55:06.299Z,10.80
2023-05-12T22:57:32.740Z,9.88
2023-05-12T22:59:59.107Z,12.10
2023-05-12T23:02:25.475Z,11.35
2023-05-12T23:04:51.842Z,10.85
2023-05-12T23:07:18.321Z,10.10
2023-05-12T23:09:44.773Z,11.00
2023-05-12T23:12:11.239Z,10.50
2023-05-12T23:14:37.662Z,11.65
2023-05-12T23:17:04.219Z,13.63
2023-05-12T23:19:30.845Z,10.18
2023-05-12T23:21:57.193Z,10.00
2023-05-12T23:24:23.594Z,12.70
2023-05-12T23:26:50.896Z,12.00
2023-05-12T23:29:17.350Z,10.38
2023-05-12T23:31:43.883Z,10.80
2023-05-12T23:34:10.316Z,9.32
2023-05-12T23:36:36.914Z,11.43
2023-05-12T23:39:04.125Z,10.50
2023-05-12T23:41:31.789Z,11.32
2023-05-12T23:43:58.683Z,8.95
2023-05-12T23:46:25.885Z,10.77
2023-05-12T23:48:52.535Z,8.57
2023-05-12T23:51:19.020Z,10.90
2023-05-12T23:53:45.429Z,8.73
2023-05-12T23:56:11.961Z,8.95
2023-05-12T23:58:38.351Z,12.35
